Time;durP1;ratioP1;P1;durP2;ratioP2;P2;SDS_P1;SDS_P2;PMS_P1;PMS_P2;Temp;Humidity;BMP_temperature;BMP_pressure;BME280_temperature;BME280_humidity;BME280_pressure;Samples;Min_cycle;Max_cycle;Signal;HPM_P1;HPM_P2
2022/01/24 00:01:53;;;;;;;5.03;3.93;;;;;;;;;;5091370;28;20449;-67
2022/01/24 00:04:21;;;;;;;13.33;5.07;;;;;;;;;;5084024;28;20498;-67
2022/01/24 00:06:48;;;;;;;6.23;4.57;;;;;;;;;;5092237;28;20447;-67
2022/01/24 00:09:15;;;;;;;8.13;4.50;;;;;;;;;;5092414;28;20508;-67
2022/01/24 00:11:47;;;;;;;7.33;4.10;;;;;;;;;;5082380;28;20445;-67
2022/01/24 00:17:04;;;;;;;8.33;4.50;;;;;;;;;;5084277;28;20444;-67
2022/01/24 00:27:47;;;;;;;5.57;3.90;;;;;;;;;;5090744;28;20470;-67
2022/01/24 00:30:15;;;;;;;7.30;4.97;;;;;;;;;;5091545;28;20873;-67
2022/01/24 00:32:42;;;;;;;6.67;4.57;;;;;;;;;;5089535;28;20476;-67
2022/01/24 00:35:10;;;;;;;7.03;4.80;;;;;;;;;;5086444;28;20528;-67
2022/01/24 00:37:37;;;;;;;6.97;4.50;;;;;;;;;;5092349;28;20440;-67
2022/01/24 00:40:05;;;;;;;6.47;4.67;;;;;;;;;;5077109;28;20487;-67
2022/01/24 00:42:42;;;;;;;7.13;4.27;;;;;;;;;;5091386;28;20527;-67
2022/01/24 00:45:15;;;;;;;6.40;3.97;;;;;;;;;;5091381;28;20604;-67
2022/01/24 00:48:01;;;;;;;6.00;4.17;;;5.50;1.00;;;;;;5091886;28;20445;-67
2022/01/24 00:53:31;;;;;;;6.97;4.50;;;2.60;99.90;;;;;;5079617;28;20440;-67
2022/01/24 00:55:58;;;;;;;9.53;4.17;;;2.60;99.90;;;;;;5090318;28;20560;-67
2022/01/24 00:58:25;;;;;;;9.17;6.50;;;2.50;99.90;;;;;;5087561;28;20442;-67
2022/01/24 01:00:54;;;;;;;5.83;4.93;;;2.40;99.90;;;;;;5090183;28;20491;-66
2022/01/24 01:03:21;;;;;;;4.93;3.70;;;2.30;99.90;;;;;;5091656;28;20459;-67
2022/01/24 01:06:02;;;;;;;7.97;4.80;;;2.30;99.90;;;;;;5091089;28;21003;-67
2022/01/24 01:19:23;;;;;;;7.20;4.60;;;2.20;1.00;;;;;;5090055;28;20442;-67
2022/01/24 01:21:50;;;;;;;5.63;4.40;;;2.20;1.00;;;;;;5090163;28;20448;-67
2022/01/24 01:24:18;;;;;;;7.20;4.50;;;2.10;1.00;;;;;;5091392;28;20532;-67
2022/01/24 01:26:50;;;;;;;8.27;4.90;;;2.20;1.00;;;;;;5090950;28;20457;-67
2022/01/24 01:29:21;;;;;;;8.43;5.77;;;2.20;1.00;;;;;;5083123;28;20866;-67
2022/01/24 01:31:58;;;;;;;6.60;4.17;;;2.30;1.00;;;;;;5090430;28;20446;-67
2022/01/24 01:34:49;;;;;;;9.10;5.27;;;2.10;99.90;;;;;;5089991;28;20448;-67
2022/01/24 01:54:12;;;;;;;8.03;5.77;;;2.30;1.00;;;;;;5083512;28;20501;-67
2022/01/24 01:56:40;;;;;;;8.97;5.40;;;2.10;99.90;;;;;;5091005;28;20492;-67
2022/01/24 01:59:07;;;;;;;7.90;4.83;;;2.00;1.00;;;;;;5089657;28;20527;-67
2022/01/24 02:01:34;;;;;;;9.00;5.00;;;2.00;1.00;;;;;;5090159;28;20453;-67
2022/01/24 02:04:05;;;;;;;5.40;4.23;;;2.00;1.00;;;;;;5089586;28;20495;-67
2022/01/24 02:06:32;;;;;;;6.00;4.87;;;;;;;;;;5090466;28;20473;-67
2022/01/24 02:09:00;;;;;;;10.03;6.00;;;;;;;;;;5089738;28;20520;-67
2022/01/24 02:11:27;;;;;;;6.83;4.60;;;;;;;;;;5082194;28;20449;-67
2022/01/24 02:13:57;;;;;;;6.87;4.43;;;;;;;;;;5089638;28;20535;-67
2022/01/24 02:16:33;;;;;;;7.70;5.13;;;;;;;;;;5090580;28;20876;-67
2022/01/24 02:19:12;;;;;;;8.87;5.50;;;;;;;;;;5076851;28;20451;-67
2022/01/24 02:21:46;;;;;;;8.30;5.13;;;;;;;;;;5090456;28;20807;-67
2022/01/24 02:24:15;;;;;;;7.90;5.67;;;;;;;;;;5090298;28;20523;-67
2022/01/24 02:26:43;;;;;;;9.00;4.80;;;;;;;;;;5089769;28;20464;-67
2022/01/24 02:29:17;;;;;;;7.13;5.23;;;;;;;;;;5089593;28;20486;-67
2022/01/24 02:31:47;;;;;;;7.40;4.90;;;;;;;;;;5090474;28;20445;-67
2022/01/24 02:34:25;;;;;;;7.37;5.20;;;;;;;;;;5089427;28;20972;-67
2022/01/24 02:36:55;;;;;;;9.07;5.67;;;;;;;;;;5078421;28;20445;-67
2022/01/24 02:48:42;;;;;;;7.80;4.67;;;;;;;;;;5037646;28;20454;-67
2022/01/24 02:51:32;;;;;;;11.20;5.20;;;;;;;;;;5088997;28;20480;-67
2022/01/24 02:54:00;;;;;;;7.47;4.90;;;;;;;;;;5089134;28;20458;-67
2022/01/24 02:56:28;;;;;;;7.10;5.63;;;;;;;;;;5090510;28;21233;-67
2022/01/24 02:58:55;;;;;;;12.33;5.60;;;;;;;;;;5083792;28;20452;-67
2022/01/24 03:01:22;;;;;;;10.17;5.10;;;;;;;;;;5089410;28;20444;-67
2022/01/24 03:03:49;;;;;;;9.40;6.00;;;;;;;;;;5087267;28;20445;-67
2022/01/24 03:06:16;;;;;;;11.57;7.27;;;;;;;;;;5089962;28;20539;-67
2022/01/24 03:08:43;;;;;;;13.53;6.20;;;;;;;;;;5087751;28;21012;-67
2022/01/24 03:11:12;;;;;;;10.03;6.10;;;;;;;;;;5083286;28;20494;-67
2022/01/24 03:13:39;;;;;;;7.47;5.07;;;;;;;;;;5085647;28;20479;-67
2022/01/24 03:16:08;;;;;;;9.70;6.53;;;;;;;;;;5089806;28;20535;-67
2022/01/24 03:18:35;;;;;;;8.90;5.47;;;;;;;;;;5092772;28;20445;-67
2022/01/24 03:21:03;;;;;;;8.93;5.60;;;;;;;;;;5092852;28;20809;-67
2022/01/24 03:23:30;;;;;;;9.70;6.43;;;;;;;;;;5087659;28;20453;-67
2022/01/24 03:25:57;;;;;;;7.40;5.17;;;;;;;;;;5092323;28;20451;-67
2022/01/24 03:28:26;;;;;;;11.00;6.10;;;;;;;;;;5093456;28;20445;-67
2022/01/24 03:30:53;;;;;;;8.77;5.23;;;;;;;;;;5092168;28;20468;-67
2022/01/24 03:33:20;;;;;;;7.60;4.80;;;;;;;;;;5093698;28;20531;-67
2022/01/24 03:35:47;;;;;;;8.40;5.70;;;;;;;;;;5090112;28;20533;-67
2022/01/24 03:38:15;;;;;;;10.73;6.13;;;;;;;;;;5091123;28;20527;-67
2022/01/24 03:40:42;;;;;;;10.33;5.97;;;;;;;;;;5093550;28;21042;-67
2022/01/24 03:43:10;;;;;;;7.67;5.57;;;;;;;;;;5092348;28;21032;-69
2022/01/24 03:45:45;;;;;;;7.60;4.97;;;;;;;;;;5093462;28;20528;-67
2022/01/24 03:48:26;;;;;;;7.93;5.30;;;;;;;;;;5090036;28;20471;-67
2022/01/24 03:50:53;;;;;;;7.67;5.53;;;;;;;;;;5092288;28;20475;-67
2022/01/24 03:53:20;;;;;;;10.80;7.10;;;;;;;;;;5087139;28;20519;-67
2022/01/24 03:55:47;;;;;;;8.40;6.13;;;;;;;;;;5093038;28;20529;-67
2022/01/24 03:58:14;;;;;;;9.40;5.70;;;;;;;;;;5092133;28;20848;-67
2022/01/24 04:00:43;;;;;;;7.97;4.90;;;;;;;;;;5091528;28;20445;-67
2022/01/24 04:03:10;;;;;;;8.00;5.60;;;;;;;;;;5092182;28;20543;-67
2022/01/24 04:05:37;;;;;;;7.83;5.17;;;;;;;;;;5092594;28;20459;-66
2022/01/24 04:08:05;;;;;;;9.40;5.90;;;;;;;;;;5091888;28;20455;-67
2022/01/24 04:10:40;;;;;;;7.00;6.27;;;;;;;;;;5092169;28;20483;-67
2022/01/24 04:13:21;;;;;;;9.83;5.80;;;;;;;;;;5092425;28;20531;-67
2022/01/24 04:16:09;;;;;;;20.70;13.00;;;;;;;;;;5078916;28;20448;-67
2022/01/24 04:18:44;;;;;;;7.70;5.17;;;;;;;;;;5092649;28;20440;-69
2022/01/24 04:21:20;;;;;;;9.57;6.00;;;;;;;;;;5091712;28;20454;-67
2022/01/24 04:23:52;;;;;;;7.53;4.57;;;;;;;;;;5077817;28;20436;-67
2022/01/24 04:26:19;;;;;;;7.80;4.60;;;;;;;;;;5091099;28;20457;-67
2022/01/24 04:28:47;;;;;;;7.33;4.90;;;;;;;;;;5091643;28;20447;-67
2022/01/24 04:31:15;;;;;;;10.27;6.47;;;;;;;;;;5092074;28;20579;-67
2022/01/24 04:33:42;;;;;;;9.50;6.33;;;;;;;;;;5092809;28;20483;-67
2022/01/24 04:36:10;;;;;;;9.03;6.23;;;;;;;;;;5089393;28;20516;-67
2022/01/24 04:38:37;;;;;;;10.83;6.70;;;;;;;;;;5092361;28;20535;-67
2022/01/24 04:41:12;;;;;;;8.93;6.77;;;;;;;;;;5090630;28;20523;-67
2022/01/24 04:43:52;;;;;;;7.27;6.40;;;;;;;;;;5091634;28;20572;-67
2022/01/24 04:46:43;;;;;;;9.77;6.80;;;;;;;;;;5091485;28;20940;-67
2022/01/24 04:52:10;;;;;;;8.37;5.60;;;;;;;;;;5076375;28;20468;-67
2022/01/24 04:54:40;;;;;;;9.90;5.63;;;;;;;;;;5078515;28;20453;-67
2022/01/24 04:57:08;;;;;;;7.57;5.03;;;;;;;;;;5091143;28;20477;-67
2022/01/24 04:59:36;;;;;;;12.23;5.70;;;;;;;;;;5090759;28;21229;-67
2022/01/24 05:02:04;;;;;;;11.00;6.30;;;;;;;;;;5090430;28;20982;-67
2022/01/24 05:04:32;;;;;;;9.50;6.47;;;;;;;;;;5090641;28;20968;-67
2022/01/24 05:06:59;;;;;;;7.90;5.70;;;;;;;;;;5090123;28;20448;-66
2022/01/24 05:09:28;;;;;;;8.80;6.17;;;;;;;;;;5091991;28;20484;-67
2022/01/24 05:12:00;;;;;;;11.00;7.43;;;;;;;;;;5091150;28;20520;-67
2022/01/24 05:25:28;;;;;;;11.03;6.83;;;;;;;;;;5078783;28;20419;-67
2022/01/24 05:27:55;;;;;;;8.73;5.60;;;;;;;;;;5082529;28;20441;-64
2022/01/24 05:30:22;;;;;;;11.97;6.23;;;;;;;;;;5078634;28;20484;-64
2022/01/24 05:32:51;;;;;;;11.00;7.27;;;;;;;;;;5090358;28;20448;-64
2022/01/24 05:35:18;;;;;;;9.47;6.73;;;;;;;;;;5091267;28;20521;-67
2022/01/24 05:37:45;;;;;;;10.67;6.07;;;;;;;;;;5091398;28;20448;-68
2022/01/24 05:40:13;;;;;;;11.27;6.47;;;;;;;;;;5080957;28;20766;-67
2022/01/24 05:42:40;;;;;;;8.77;6.43;;;;;;;;;;5085859;28;20509;-67
2022/01/24 05:45:08;;;;;;;11.13;6.40;;;;;;;;;;5090202;28;20447;-67
2022/01/24 05:47:35;;;;;;;8.40;6.03;;;;;;;;;;5091304;28;20481;-67
2022/01/24 05:50:04;;;;;;;9.30;5.37;;;;;;;;;;5090380;28;20458;-67
2022/01/24 05:52:32;;;;;;;8.40;6.37;;;;;;;;;;5090861;28;20448;-67
2022/01/24 05:54:59;;;;;;;11.20;6.77;;;;;;;;;;5090886;28;20462;-67
2022/01/24 05:57:26;;;;;;;11.43;7.53;;;;;;;;;;5091195;28;20984;-68
2022/01/24 05:59:54;;;;;;;9.23;6.13;;;;;;;;;;5090344;28;20464;-68
2022/01/24 06:02:22;;;;;;;8.10;6.03;;;;;;;;;;5090909;28;20443;-68
2022/01/24 06:04:49;;;;;;;11.60;8.50;;;;;;;;;;5089634;28;20518;-69
2022/01/24 06:07:18;;;;;;;11.97;6.27;;;;;;;;;;5077577;28;20542;-68
2022/01/24 06:09:45;;;;;;;10.47;7.07;;;;;;;;;;5090856;28;20944;-68
2022/01/24 06:12:12;;;;;;;11.17;7.07;;;;;;;;;;5090429;28;20516;-68
2022/01/24 06:14:40;;;;;;;13.03;7.00;;;;;;;;;;5090256;28;20447;-68
2022/01/24 06:17:08;;;;;;;9.00;6.60;;;;;;;;;;5089981;28;20447;-68
2022/01/24 06:19:35;;;;;;;11.90;7.93;;;;;;;;;;5090788;28;20487;-67
2022/01/24 06:22:02;;;;;;;8.10;6.70;;;;;;;;;;5090164;28;20460;-67
2022/01/24 06:24:30;;;;;;;10.50;7.10;;;;;;;;;;5090654;28;20492;-67
2022/01/24 06:26:58;;;;;;;12.03;6.40;;;;;;;;;;5089838;28;20465;-67
2022/01/24 06:29:25;;;;;;;9.63;6.80;;;;;;;;;;5090762;28;20455;-67
2022/01/24 06:31:52;;;;;;;9.57;6.67;;;;;;;;;;5089668;28;20994;-67
2022/01/24 06:34:19;;;;;;;8.77;6.17;;;;;;;;;;5090352;28;20486;-68
2022/01/24 06:36:46;;;;;;;10.07;7.10;;;;;;;;;;5090281;28;20465;-67
2022/01/24 06:39:14;;;;;;;14.00;7.23;;;;;;;;;;5091317;28;20539;-67
2022/01/24 06:41:51;;;;;;;11.27;7.77;;;;;;;;;;5077697;28;20494;-67
2022/01/24 06:44:18;;;;;;;12.87;7.20;;;;;;;;;;5090452;28;20462;-68
2022/01/24 06:46:45;;;;;;;10.90;6.67;;;;;;;;;;5091081;28;20545;-67
2022/01/24 06:49:13;;;;;;;9.50;7.17;;;;;;;;;;5090595;28;20475;-68
2022/01/24 06:51:40;;;;;;;9.87;7.40;;;;;;;;;;5092397;28;20487;-67
2022/01/24 06:54:08;;;;;;;13.77;7.77;;;;;;;;;;5093552;28;20447;-67
2022/01/24 06:56:35;;;;;;;12.97;8.13;;;;;;;;;;5093965;28;20483;-67
2022/01/24 06:59:03;;;;;;;13.23;8.30;;;;;;;;;;5093752;28;20456;-68
2022/01/24 07:01:31;;;;;;;10.57;7.53;;;;;;;;;;5094021;28;20935;-67
2022/01/24 07:03:58;;;;;;;12.73;8.73;;;;;;;;;;5093365;28;20441;-68
2022/01/24 07:06:25;;;;;;;11.10;7.90;;;;;;;;;;5094023;28;20497;-67
2022/01/24 07:08:52;;;;;;;9.90;7.73;;;;;;;;;;5093461;28;20474;-67
2022/01/24 07:11:19;;;;;;;11.17;7.97;;;;;;;;;;5094321;28;20512;-67
2022/01/24 07:13:46;;;;;;;12.77;7.63;;;;;;;;;;5093973;28;20455;-67
2022/01/24 07:16:15;;;;;;;12.70;8.43;;;;;;;;;;5093388;28;20479;-68
2022/01/24 07:19:03;;;;;;;12.23;7.13;;;;;;;;;;5094185;28;20444;-67
2022/01/24 07:21:30;;;;;;;10.57;6.87;;;;;;;;;;5094570;28;20548;-67
2022/01/24 07:23:58;;;;;;;11.77;8.50;;;;;;;;;;5093548;28;20907;-67
2022/01/24 07:26:25;;;;;;;8.87;7.53;;;;;;;;;;5093392;28;21005;-67
2022/01/24 07:28:52;;;;;;;11.20;7.87;;;;;;;;;;5093100;28;20587;-67
2022/01/24 07:31:21;;;;;;;15.07;8.27;;;;;;;;;;5093781;28;20990;-67
2022/01/24 07:33:48;;;;;;;16.40;9.20;;;;;;;;;;5093519;28;20455;-68
2022/01/24 07:36:15;;;;;;;10.83;6.97;;;;;;;;;;5093163;28;20505;-67
2022/01/24 07:38:42;;;;;;;14.63;8.90;;;;;;;;;;5093827;28;20528;-67
2022/01/24 07:41:09;;;;;;;14.20;7.50;;;;;;;;;;5092849;28;20722;-68
2022/01/24 07:43:36;;;;;;;12.37;7.57;;;;;;;;;;5093854;28;20952;-68
2022/01/24 07:46:04;;;;;;;14.23;7.57;;;;;;;;;;5091996;28;20528;-68
2022/01/24 07:48:32;;;;;;;15.20;8.30;;;;;;;;;;5093503;28;20551;-68
2022/01/24 07:50:59;;;;;;;13.40;7.80;;;;;;;;;;5092480;28;20483;-68
2022/01/24 07:53:27;;;;;;;12.20;7.73;;;;;;;;;;5093479;28;20447;-68
2022/01/24 07:55:55;;;;;;;17.03;8.10;;;;;;;;;;5091453;28;20452;-68
2022/01/24 07:58:22;;;;;;;10.67;7.43;;;;;;;;;;5093005;28;20444;-68
2022/01/24 08:00:49;;;;;;;11.10;7.33;;;;;;;;;;5092244;28;20453;-68
2022/01/24 08:03:16;;;;;;;12.70;8.83;;;;;;;;;;5092805;28;20540;-68
2022/01/24 08:05:45;;;;;;;8.80;7.03;;;;;;;;;;5092944;28;20933;-68
2022/01/24 08:08:12;;;;;;;12.10;8.63;;;;;;;;;;5093402;28;20484;-69
2022/01/24 08:10:40;;;;;;;10.67;7.47;;;;;;;;;;5092906;28;20453;-69
2022/01/24 08:13:07;;;;;;;12.07;7.27;;;;;;;;;;5092498;28;20960;-68
2022/01/24 08:15:35;;;;;;;11.20;7.63;;;;;;;;;;5092912;28;20531;-68
2022/01/24 08:18:02;;;;;;;9.60;7.43;;;;;;;;;;5092274;28;21031;-68
2022/01/24 08:20:29;;;;;;;14.90;9.17;;;;;;;;;;5093041;28;20501;-68
2022/01/24 08:22:58;;;;;;;11.60;7.30;;;;;;;;;;5092251;28;20494;-69
2022/01/24 08:25:26;;;;;;;14.97;8.47;;;;;;;;;;5092069;28;20935;-68
2022/01/24 08:27:53;;;;;;;9.53;6.87;;;;;;;;;;5092306;28;20535;-68
2022/01/24 08:30:21;;;;;;;11.43;8.93;;;;;;;;;;5079188;28;20527;-67
2022/01/24 08:32:49;;;;;;;9.30;6.63;;;;;;;;;;5092288;28;20491;-69
2022/01/24 08:35:16;;;;;;;12.60;8.10;;;;;;;;;;5092054;28;20451;-68
2022/01/24 08:37:44;;;;;;;14.50;8.40;;;;;;;;;;5092290;28;20506;-68
2022/01/24 08:40:19;;;;;;;10.23;7.97;;;;;;;;;;5091867;28;20532;-68
2022/01/24 08:42:56;;;;;;;10.87;7.80;;;;;;;;;;5092049;28;20444;-68
2022/01/24 08:45:45;;;;;;;13.43;8.57;;;;;;;;;;5091777;28;20958;-69
2022/01/24 08:48:12;;;;;;;11.57;8.40;;;;;;;;;;5079778;28;20451;-68
2022/01/24 08:50:40;;;;;;;10.47;7.27;;;;;;;;;;5092539;28;20534;-67
2022/01/24 08:53:07;;;;;;;11.13;7.93;;;;;;;;;;5091832;28;21043;-68
2022/01/24 08:55:36;;;;;;;15.63;8.97;;;;;;;;;;5092133;28;20535;-68
2022/01/24 08:58:04;;;;;;;14.43;9.70;;;;;;;;;;5092158;28;20491;-68
2022/01/24 09:00:32;;;;;;;12.53;7.93;;;;;;;;;;5092279;28;20462;-68
2022/01/24 09:02:59;;;;;;;14.40;10.30;;;;;;;;;;5091199;28;20963;-68
2022/01/24 09:05:34;;;;;;;15.00;9.27;;;;;;;;;;5091657;28;20484;-68
2022/01/24 09:08:01;;;;;;;13.10;9.17;;;;;;;;;;5090968;28;20439;-69
2022/01/24 09:10:28;;;;;;;12.83;8.70;;;;;;;;;;5091510;28;21047;-68
2022/01/24 09:12:56;;;;;;;11.37;8.70;;;;;;;;;;5090660;28;20486;-68
2022/01/24 09:15:24;;;;;;;14.80;10.30;;;;;;;;;;5089967;28;20924;-68
2022/01/24 09:17:51;;;;;;;14.10;10.27;;;;;;;;;;5090812;28;20449;-69
2022/01/24 09:20:18;;;;;;;13.90;9.57;;;;;;;;;;5091626;28;20449;-68
2022/01/24 09:22:46;;;;;;;12.50;9.60;;;;;;;;;;5091471;28;20456;-69
2022/01/24 09:25:15;;;;;;;16.47;10.53;;;;;;;;;;5090908;28;20449;-69
2022/01/24 09:27:43;;;;;;;16.80;10.60;;;;;;;;;;5091913;28;20547;-69
2022/01/24 09:30:13;;;;;;;14.67;10.30;;;;;;;;;;5090418;28;21049;-69
2022/01/24 09:32:40;;;;;;;13.27;9.53;;;;;;;;;;5092287;28;20472;-68
2022/01/24 09:35:09;;;;;;;12.80;9.03;;;;;;;;;;5090560;28;20458;-69
2022/01/24 09:37:36;;;;;;;11.40;9.33;;;;;;;;;;5091790;28;20457;-68
2022/01/24 09:40:04;;;;;;;13.90;9.47;;;;;;;;;;5091354;28;20538;-69
2022/01/24 09:42:31;;;;;;;10.10;8.23;;;;;;;;;;5091597;28;20451;-70
2022/01/24 09:44:58;;;;;;;9.67;8.67;;;;;;;;;;5077100;28;20448;-69
2022/01/24 09:47:27;;;;;;;14.90;9.40;;;;;;;;;;5091298;28;20564;-69
2022/01/24 09:49:55;;;;;;;13.17;10.00;;;;;;;;;;5090202;28;20459;-69
2022/01/24 09:52:22;;;;;;;16.90;12.63;;;;;;;;;;5091238;28;20480;-70
2022/01/24 09:57:36;;;;;;;11.30;8.90;;;;;;;;;;5089625;28;20484;-69
2022/01/24 10:00:05;;;;;;;11.63;8.60;;;;;;;;;;5090349;28;20536;-69
2022/01/24 10:02:33;;;;;;;11.87;9.20;;;;;;;;;;5090955;28;20472;-69
2022/01/24 10:05:12;;;;;;;10.10;8.60;;;;;;;;;;5089763;28;20453;-69
2022/01/24 10:07:40;;;;;;;11.77;8.50;;;;;;;;;;5090833;28;20916;-69
2022/01/24 10:10:07;;;;;;;9.37;8.00;;;;;;;;;;5090160;28;20441;-67
2022/01/24 10:16:24;;;;;;;15.23;7.27;;;;;;;;;;5090991;28;20488;-67
2022/01/24 10:18:11;;;;;;;11.67;7.13;;;;;;;;;;5090643;28;21054;-68
2022/01/24 10:20:39;;;;;;;10.60;7.37;;;;;;;;;;5091572;28;20456;-69
2022/01/24 10:23:10;;;;;;;7.77;6.33;;;;;;;;;;5090573;28;21243;-68
2022/01/24 10:25:51;;;;;;;7.37;5.93;;;;;;;;;;5090997;28;20464;-68
2022/01/24 10:28:22;;;;;;;8.90;6.47;;;;;;;;;;5095361;28;20543;-67
2022/01/24 10:30:51;;;;;;;7.70;5.80;;;;;;;;;;5094173;28;20447;-69
2022/01/24 10:33:19;;;;;;;7.03;5.87;;;;;;;;;;5094425;28;20996;-69
2022/01/24 10:35:47;;;;;;;7.30;5.70;;;;;;;;;;5094639;28;20436;-69
2022/01/24 10:38:19;;;;;;;8.53;5.80;;;;;;;;;;5094405;28;20455;-69
2022/01/24 10:40:50;;;;;;;7.30;5.53;;;;;;;;;;5094928;28;20439;-69
2022/01/24 10:43:19;;;;;;;9.33;5.60;;;;;;;;;;5094583;28;20444;-69
2022/01/24 10:45:46;;;;;;;7.77;5.67;;;;;;;;;;5094273;28;20450;-68
2022/01/24 10:48:14;;;;;;;8.83;5.27;;;;;;;;;;5081210;28;20797;-69
2022/01/24 10:50:42;;;;;;;7.40;6.10;;;;;;;;;;5094633;28;20782;-69
2022/01/24 10:53:13;;;;;;;5.60;4.80;;;;;;;;;;5093871;28;20571;-69
2022/01/24 10:55:41;;;;;;;6.07;5.43;;;;;;;;;;5094295;28;20852;-69
2022/01/24 10:58:09;;;;;;;6.20;5.20;;;;;;;;;;5093722;28;20484;-69
2022/01/24 11:00:37;;;;;;;6.77;5.50;;;;;;;;;;5094752;28;20480;-68
2022/01/24 11:03:06;;;;;;;5.83;4.90;;;;;;;;;;5093958;28;20444;-69
2022/01/24 11:05:35;;;;;;;7.07;5.23;;;;;;;;;;5094362;28;21072;-68
2022/01/24 11:08:05;;;;;;;6.13;4.73;;;;;;;;;;5094292;28;20449;-69
2022/01/24 11:10:33;;;;;;;7.43;5.73;;;;;;;;;;5094543;28;20512;-68
2022/01/24 11:13:02;;;;;;;7.87;4.63;;;;;;;;;;5093678;28;20913;-69
2022/01/24 11:15:30;;;;;;;6.10;5.30;;;;;;;;;;5093782;28;20521;-68
2022/01/24 11:17:58;;;;;;;7.10;4.90;;;;;;;;;;5093398;28;20524;-69
2022/01/24 11:20:30;;;;;;;7.07;5.70;;;;;;;;;;5093763;28;20968;-69
2022/01/24 11:23:01;;;;;;;5.50;4.13;;;;;;;;;;5093391;28;20445;-69
2022/01/24 11:25:31;;;;;;;5.97;4.63;;;;;;;;;;5093465;28;20472;-67
2022/01/24 11:27:58;;;;;;;7.63;4.80;;;;;;;;;;5092565;28;20502;-66
2022/01/24 11:30:29;;;;;;;7.00;5.70;;;;;;;;;;5093871;28;20451;-67
2022/01/24 11:32:57;;;;;;;7.63;5.10;;;;;;;;;;5092692;28;20537;-69
2022/01/24 11:35:32;;;;;;;6.40;5.67;;;;;;;;;;5094046;28;20440;-69
2022/01/24 11:37:59;;;;;;;5.77;5.07;;;;;;;;;;5091718;28;20614;-69
2022/01/24 11:40:27;;;;;;;5.60;4.37;;;;;;;;;;5093397;28;21027;-67
2022/01/24 11:42:57;;;;;;;6.70;4.87;;;;;;;;;;5093074;28;21023;-66
2022/01/24 11:45:45;;;;;;;5.33;4.63;;;;;;;;;;5093409;28;20785;-67
2022/01/24 11:48:17;;;;;;;4.73;3.70;;;;;;;;;;5093565;28;20528;-67
2022/01/24 11:50:44;;;;;;;6.97;3.97;;;;;;;;;;5093889;28;20450;-67
2022/01/24 11:53:21;;;;;;;6.00;4.60;;;;;;;;;;5093090;28;20476;-69
2022/01/24 11:55:48;;;;;;;4.90;4.10;;;;;;;;;;5092558;28;20439;-67
2022/01/24 11:58:23;;;;;;;5.63;4.27;;;;;;;;;;5093040;28;20563;-67
2022/01/24 12:00:52;;;;;;;3.87;3.50;;;;;;;;;;5092102;28;20447;-67
2022/01/24 12:03:26;;;;;;;4.97;3.40;;;;;;;;;;5092985;28;20938;-67
2022/01/24 12:05:54;;;;;;;4.87;3.80;;;;;;;;;;5091969;28;20948;-67
2022/01/24 12:08:32;;;;;;;3.63;3.30;;;;;;;;;;5093186;28;20476;-67
2022/01/24 12:11:12;;;;;;;3.70;3.30;;;;;;;;;;5092128;28;20441;-67
2022/01/24 12:13:44;;;;;;;4.20;3.67;;;;;;;;;;5092944;28;20560;-68
2022/01/24 12:16:11;;;;;;;5.40;4.03;;;;;;;;;;5091708;28;20447;-67
2022/01/24 12:19:10;;;;;;;7.80;5.17;;;;;;;;;;5092650;28;20949;-69
2022/01/24 12:21:37;;;;;;;7.60;5.20;;;;;;;;;;4991148;28;20460;-67
2022/01/24 12:24:06;;;;;;;6.80;5.33;;;;;;;;;;5069367;28;20887;-69
2022/01/24 12:26:35;;;;;;;5.67;4.60;;;;;;;;;;5092783;28;20966;-69
2022/01/24 12:29:05;;;;;;;6.53;5.53;;;;;;;;;;5092148;28;20447;-67
2022/01/24 12:31:34;;;;;;;7.00;4.30;;;;;;;;;;5092616;28;20485;-67
2022/01/24 12:34:09;;;;;;;5.80;5.20;;;;;;;;;;5091972;28;20812;-69
2022/01/24 12:36:48;;;;;;;8.43;4.83;;;;;;;;;;5093037;28;20467;-69
2022/01/24 12:39:16;;;;;;;5.87;4.57;;;;;;;;;;5092865;28;20453;-67
2022/01/24 12:41:47;;;;;;;6.67;5.47;;;;;;;;;;5092554;28;20824;-69
2022/01/24 12:46:57;;;;;;;5.80;4.60;;;;;;;;;;5090220;28;20447;-68
2022/01/24 12:49:25;;;;;;;6.70;4.77;;;;;;;;;;5092074;28;20746;-68
2022/01/24 12:51:52;;;;;;;6.13;5.07;;;;;;;;;;5091554;28;20449;-68
2022/01/24 12:54:19;;;;;;;6.63;4.63;;;;;;;;;;5091496;28;20480;-68
2022/01/24 12:56:46;;;;;;;6.80;4.83;;;;;;;;;;5092088;28;20502;-68
2022/01/24 12:59:13;;;;;;;6.70;4.43;;;;;;;;;;5091568;28;20452;-68
2022/01/24 13:01:42;;;;;;;7.37;4.80;;;;;;;;;;5092066;28;20531;-68
2022/01/24 13:04:11;;;;;;;5.00;4.37;;;;;;;;;;5090873;28;20479;-68
2022/01/24 13:06:39;;;;;;;5.83;4.23;;;;;;;;;;5091821;28;20535;-68
2022/01/24 13:09:19;;;;;;;5.20;4.70;;;;;;;;;;5091930;28;20543;-68
2022/01/24 13:11:47;;;;;;;4.63;4.13;;;;;;;;;;5092216;28;20440;-68
2022/01/24 13:14:18;;;;;;;5.20;4.40;;;;;;;;;;5091447;28;20484;-68
2022/01/24 13:22:25;;;;;;;8.63;4.40;;;;;;;;;;5078796;28;20547;-68
2022/01/24 13:25:06;;;;;;;6.17;4.20;;;;;;;;;;5090518;28;20849;-68
2022/01/24 13:27:36;;;;;;;4.07;3.53;;;;;;;;;;5091452;28;20452;-68
2022/01/24 13:30:04;;;;;;;7.23;4.80;;;;;;;;;;5091017;28;20524;-68
2022/01/24 13:32:47;;;;;;;4.40;4.00;;;;;;;;;;5091357;28;20451;-68
2022/01/24 13:35:23;;;;;;;5.23;3.93;;;;;;;;;;5083972;28;20449;-68
2022/01/24 13:37:50;;;;;;;4.97;3.57;;;;;;;;;;5085630;28;20443;-68
2022/01/24 13:40:31;;;;;;;4.70;4.10;;;;;;;;;;5091221;28;20451;-68
2022/01/24 13:42:58;;;;;;;5.40;3.80;;;;;;;;;;5090300;28;20555;-68
2022/01/24 13:45:25;;;;;;;5.93;4.40;;;;;;;;;;5091121;28;20527;-68
2022/01/24 13:47:58;;;;;;;5.67;4.17;;;;;;;;;;5090420;28;20455;-68
2022/01/24 13:50:25;;;;;;;5.50;4.13;;;;;;;;;;5091646;28;20441;-69
2022/01/24 13:52:53;;;;;;;4.40;3.90;;;;;;;;;;5091021;28;20563;-68
2022/01/24 13:55:22;;;;;;;4.50;4.00;;;;;;;;;;5091209;28;20539;-68
2022/01/24 13:57:50;;;;;;;6.83;3.80;;;;;;;;;;5090753;28;20484;-68
2022/01/24 14:00:22;;;;;;;6.17;3.70;;;;;;;;;;5091254;28;20536;-69
2022/01/24 14:02:50;;;;;;;7.77;4.20;;;;;;;;;;5090612;28;20515;-68
2022/01/24 14:05:19;;;;;;;3.30;3.00;;;;;;;;;;5090921;28;20460;-69
2022/01/24 14:07:46;;;;;;;5.60;3.47;;;;;;;;;;5091293;28;20448;-69
2022/01/24 14:10:16;;;;;;;4.90;3.50;;;;;;;;;;5090372;28;20452;-69
2022/01/24 14:12:49;;;;;;;7.10;4.20;;;;;;;;;;5091042;28;20445;-70
2022/01/24 14:15:21;;;;;;;5.80;3.70;;;;;;;;;;5090590;28;20485;-69
2022/01/24 14:18:21;;;;;;;4.97;3.60;;;;;;;;;;5090265;28;20443;-69
2022/01/24 14:20:51;;;;;;;5.90;4.57;;;;;;;;;;5090684;28;20518;-69
2022/01/24 14:23:22;;;;;;;5.60;3.87;;;;;;;;;;5090898;28;20436;-69
2022/01/24 14:25:50;;;;;;;4.63;2.80;;;;;;;;;;5089743;28;20452;-69
2022/01/24 14:28:18;;;;;;;4.43;3.17;;;;;;;;;;5090929;28;20480;-69
2022/01/24 14:30:47;;;;;;;4.47;3.43;;;;;;;;;;5090925;28;20528;-69
2022/01/24 14:33:15;;;;;;;4.70;3.73;;;;;;;;;;5090636;28;20477;-69
2022/01/24 14:35:49;;;;;;;6.47;3.17;;;;;;;;;;5090941;28;20440;-69
2022/01/24 14:38:28;;;;;;;7.50;4.60;;;;;;;;;;5090578;28;20482;-68
2022/01/24 14:40:58;;;;;;;6.70;3.77;;;;;;;;;;5090306;28;20455;-69
2022/01/24 14:46:12;;;;;;;5.90;3.13;;;;;;;;;;5089911;28;20420;-69
2022/01/24 14:48:44;;;;;;;3.83;3.43;;;;;;;;;;5090712;28;20579;-69
2022/01/24 14:51:11;;;;;;;4.23;2.83;;;;;;;;;;5090054;28;20448;-69
2022/01/24 14:53:39;;;;;;;7.20;3.37;;;;;;;;;;5090166;28;20527;-69
2022/01/24 14:56:07;;;;;;;3.57;2.80;;;;;;;;;;5089396;28;20452;-68
2022/01/24 14:58:34;;;;;;;4.23;3.57;;;;;;;;;;5090618;28;20535;-69
2022/01/24 15:01:01;;;;;;;5.57;3.30;;;;;;;;;;5089514;28;20535;-69
2022/01/24 15:03:28;;;;;;;3.70;3.13;;;;;;;;;;5090156;28;20554;-69
2022/01/24 15:05:56;;;;;;;5.80;3.17;;;;;;;;;;5089302;28;20445;-69
2022/01/24 15:08:24;;;;;;;5.20;3.00;;;;;;;;;;5090534;28;20459;-69
2022/01/24 15:10:52;;;;;;;4.27;3.00;;;;;;;;;;5089228;28;20498;-69
2022/01/24 15:13:22;;;;;;;3.63;2.90;;;;;;;;;;5092657;28;20480;-68
2022/01/24 15:15:58;;;;;;;3.83;2.77;;;;;;;;;;5093556;28;20523;-69
2022/01/24 15:24:23;;;;;;;3.70;2.70;;;;;;;;;;5079701;28;20967;-69
2022/01/24 15:26:49;;;;;;;3.60;3.17;;;;;;;;;;5093259;28;20459;-69
2022/01/24 15:29:17;;;;;;;3.10;2.90;;;;;;;;;;5094229;28;21027;-69
2022/01/24 15:31:45;;;;;;;3.93;3.17;;;;;;;;;;5094006;28;20452;-68
2022/01/24 15:34:13;;;;;;;3.33;2.83;;;;;;;;;;5092611;28;20575;-68
2022/01/24 15:36:40;;;;;;;4.70;3.23;;;;;;;;;;5093324;28;20448;-68
2022/01/24 15:39:08;;;;;;;4.33;2.93;;;;;;;;;;5092855;28;20671;-68
2022/01/24 15:41:47;;;;;;;4.20;3.23;;;;;;;;;;5093755;28;20535;-68
2022/01/24 15:44:35;;;;;;;4.60;3.40;;;;;;;;;;5092746;28;20447;-68
2022/01/24 15:47:16;;;;;;;5.20;3.50;;;;;;;;;;5092816;28;20798;-68
2022/01/24 15:49:44;;;;;;;5.67;3.77;;;;;;;;;;5093650;28;20835;-68
2022/01/24 15:52:11;;;;;;;6.53;3.60;;;;;;;;;;5092674;28;20445;-68
2022/01/24 15:54:39;;;;;;;5.50;3.90;;;;;;;;;;5092671;28;21010;-68
2022/01/24 15:59:52;;;;;;;5.60;3.80;;;;;;;;;;5092931;28;20420;-68
2022/01/24 16:02:19;;;;;;;3.87;3.33;;;;;;;;;;5093216;28;20445;-68
2022/01/24 16:04:46;;;;;;;6.93;3.30;;;;;;;;;;5092540;28;20449;-68
2022/01/24 16:07:14;;;;;;;4.73;3.30;;;;;;;;;;5093294;28;20479;-68
2022/01/24 16:09:41;;;;;;;4.90;4.00;;;;;;;;;;5093406;28;20448;-69
2022/01/24 16:12:09;;;;;;;7.10;4.37;;;;;;;;;;5092731;28;20799;-68
2022/01/24 16:14:36;;;;;;;5.30;3.47;;;;;;;;;;5092840;28;20603;-68
2022/01/24 16:17:05;;;;;;;8.07;4.33;;;;;;;;;;5091744;28;20445;-68
2022/01/24 16:19:34;;;;;;;6.23;3.80;;;;;;;;;;5092517;28;20452;-68